createdAt,value
2022-08-07T00:01:44.394Z,89.44
2022-08-07T00:04:11.374Z,89.56
2022-08-07T00:06:51.372Z,89.50
2022-08-07T00:09:22.423Z,89.57
2022-08-07T00:11:55.877Z,89.87
2022-08-07T00:14:31.236Z,90.18
2022-08-07T00:17:01.585Z,90.47
2022-08-07T00:19:59.567Z,90.54
2022-08-07T00:22:24.547Z,90.88
2022-08-07T00:25:07.045Z,90.83
2022-08-07T00:27:53.188Z,90.84
2022-08-07T00:30:27.303Z,90.82
2022-08-07T00:32:58.350Z,91.28
2022-08-07T00:35:29.833Z,91.67
2022-08-07T00:37:59.950Z,92.26
2022-08-07T00:40:36.442Z,92.73
2022-08-07T00:44:00.229Z,92.71
2022-08-07T00:46:02.931Z,93.52
2022-08-07T00:48:32.890Z,94.29
2022-08-07T00:51:02.928Z,94.64
2022-08-07T00:53:38.823Z,94.27
2022-08-07T00:56:19.165Z,94.21
2022-08-07T00:58:50.224Z,94.02
2022-08-07T01:01:21.495Z,93.67
2022-08-07T01:03:55.546Z,93.67
2022-08-07T01:06:28.525Z,93.62
2022-08-07T01:09:00.607Z,93.46
2022-08-07T01:12:23.722Z,93.54
2022-08-07T01:14:28.354Z,93.65
2022-08-07T01:16:59.312Z,93.76
2022-08-07T01:19:32.309Z,93.33
2022-08-07T01:22:08.798Z,93.49
2022-08-07T01:24:43.308Z,93.31
2022-08-07T01:27:19.867Z,93.20
2022-08-07T01:29:51.868Z,93.59
2022-08-07T01:32:22.676Z,93.93
2022-08-07T01:34:55.863Z,93.99
2022-08-07T01:37:29.535Z,94.46
2022-08-07T01:40:07.007Z,94.71
2022-08-07T01:42:58.533Z,94.90
2022-08-07T01:45:36.859Z,95.07
2022-08-07T01:48:19.928Z,95.10
2022-08-07T01:51:24.243Z,95.01
2022-08-07T01:54:09.621Z,95.00
2022-08-07T01:56:51.077Z,94.35
2022-08-07T01:59:30.913Z,93.83
2022-08-07T02:02:07.047Z,93.19
2022-08-07T02:04:52.538Z,92.50
2022-08-07T02:07:36.228Z,91.59
2022-08-07T02:10:28.042Z,90.23
2022-08-07T02:13:01.182Z,89.28
2022-08-07T02:15:39.863Z,87.65
2022-08-07T02:18:13.357Z,86.38
2022-08-07T02:20:48.713Z,85.56
2022-08-07T02:23:24.174Z,83.94
2022-08-07T02:26:31.253Z,82.95
2022-08-07T02:28:49.224Z,82.16
2022-08-07T02:31:29.169Z,81.20
2022-08-07T02:34:02.778Z,79.58
2022-08-07T02:36:34.368Z,78.48
2022-08-07T02:39:17.069Z,77.61
2022-08-07T02:42:10.354Z,76.75
2022-08-07T02:44:49.893Z,75.46
2022-08-07T02:47:23.980Z,75.20
2022-08-07T02:50:05.401Z,74.90
2022-08-07T02:52:40.630Z,75.49
2022-08-07T02:55:28.359Z,77.51
2022-08-07T02:58:14.759Z,79.43
2022-08-07T03:00:46.795Z,79.37
2022-08-07T03:03:21.086Z,80.39
2022-08-07T03:05:55.413Z,80.98
2022-08-07T03:08:29.200Z,80.60
2022-08-07T03:11:01.894Z,80.90
2022-08-07T03:13:49.510Z,80.67
2022-08-07T03:16:23.083Z,80.46
2022-08-07T03:18:58.296Z,79.46
2022-08-07T03:21:28.089Z,79.09
2022-08-07T03:24:21.159Z,78.57
2022-08-07T03:26:59.132Z,78.12
2022-08-07T03:29:38.804Z,77.62
2022-08-07T03:32:18.023Z,77.68
2022-08-07T03:35:16.746Z,77.29
2022-08-07T03:37:46.122Z,76.29
2022-08-07T03:40:30.893Z,76.23
2022-08-07T03:43:10.031Z,75.38
2022-08-07T03:45:48.587Z,75.02
2022-08-07T03:48:22.699Z,74.67
2022-08-07T03:54:05.742Z,73.77
2022-08-07T03:56:33.031Z,73.90
2022-08-07T03:59:09.969Z,73.36
2022-08-07T04:01:50.962Z,73.10
2022-08-07T04:04:24.512Z,72.85
2022-08-07T04:07:00.153Z,72.13
2022-08-07T04:09:45.226Z,71.74
2022-08-07T04:12:28.250Z,71.11
2022-08-07T04:15:00.819Z,72.10
2022-08-07T04:18:57.225Z,71.62
2022-08-07T04:20:25.318Z,71.71
2022-08-07T04:23:01.405Z,70.98
2022-08-07T04:25:39.341Z,70.31
2022-08-07T04:28:13.293Z,70.63
2022-08-07T04:30:55.427Z,70.77
2022-08-07T04:33:36.151Z,70.95
2022-08-07T04:36:08.829Z,72.23
2022-08-07T04:38:40.654Z,71.79
2022-08-07T04:41:19.064Z,71.03
2022-08-07T04:44:14.471Z,70.54
2022-08-07T04:46:59.594Z,69.38
2022-08-07T04:49:57.789Z,68.68
2022-08-07T04:52:46.808Z,68.00
2022-08-07T04:58:13.820Z,66.88
2022-08-07T04:58:34.917Z,66.97
2022-08-07T05:01:19.143Z,66.23
2022-08-07T05:04:06.375Z,65.72
2022-08-07T05:06:51.755Z,65.71
2022-08-07T05:09:42.934Z,65.59
2022-08-07T05:12:27.267Z,65.23
2022-08-07T05:15:23.239Z,63.93
2022-08-07T05:18:08.714Z,63.63
2022-08-07T05:20:43.097Z,63.45
2022-08-07T05:23:19.130Z,63.64
2022-08-07T05:26:11.505Z,63.16
2022-08-07T05:28:46.637Z,62.62
2022-08-07T05:31:24.939Z,62.61
2022-08-07T05:34:05.810Z,61.95
2022-08-07T05:36:44.666Z,62.16
2022-08-07T05:40:06.439Z,62.24
2022-08-07T05:42:34.860Z,61.38
2022-08-07T05:45:26.088Z,61.56
2022-08-07T05:48:06.338Z,61.15
2022-08-07T05:50:48.229Z,60.72
2022-08-07T05:54:13.790Z,60.41
2022-08-07T05:56:13.302Z,59.87
2022-08-07T05:58:52.815Z,59.31
2022-08-07T06:01:34.928Z,59.58
2022-08-07T06:04:09.641Z,59.09
2022-08-07T06:06:46.210Z,59.40
2022-08-07T06:09:18.892Z,58.29
2022-08-07T06:11:52.112Z,58.29
2022-08-07T06:14:30.222Z,57.39
2022-08-07T06:17:07.023Z,56.69
2022-08-07T06:19:52.006Z,55.50
2022-08-07T06:22:36.872Z,53.81
2022-08-07T06:25:21.795Z,51.59
2022-08-07T06:28:03.236Z,49.71
2022-08-07T06:30:37.950Z,50.46
2022-08-07T06:33:16.913Z,49.93
2022-08-07T06:36:13.415Z,50.74
2022-08-07T06:38:58.540Z,49.35
2022-08-07T06:42:03.055Z,48.13
2022-08-07T06:44:51.430Z,50.18
2022-08-07T06:47:21.523Z,49.88
2022-08-07T06:49:58.559Z,50.14
2022-08-07T06:52:37.235Z,49.87
2022-08-07T06:55:33.475Z,49.07
2022-08-07T06:58:10.179Z,49.88
2022-08-07T07:00:52.739Z,51.05
2022-08-07T07:03:39.541Z,50.06
2022-08-07T07:06:11.004Z,50.79
2022-08-07T07:08:46.635Z,51.33
2022-08-07T07:12:08.622Z,50.92
2022-08-07T07:14:08.507Z,50.99
2022-08-07T07:16:49.790Z,50.25
2022-08-07T07:19:56.374Z,48.81
2022-08-07T07:22:35.970Z,48.94
2022-08-07T07:26:32.401Z,48.85
2022-08-07T07:28:03.386Z,49.49
2022-08-07T07:30:40.327Z,49.66
2022-08-07T07:33:13.853Z,49.20
2022-08-07T07:36:04.150Z,48.71
2022-08-07T07:38:35.887Z,47.13
2022-08-07T07:41:09.294Z,46.79
2022-08-07T07:44:14.669Z,46.95
2022-08-07T07:46:55.176Z,47.70
2022-08-07T07:50:35.613Z,46.85
2022-08-07T07:52:19.553Z,47.86
2022-08-07T07:54:51.456Z,46.43
2022-08-07T07:57:43.875Z,45.97
2022-08-07T08:00:29.192Z,46.41
2022-08-07T08:03:05.583Z,46.37
2022-08-07T08:05:51.156Z,46.17
2022-08-07T08:08:35.314Z,46.08
2022-08-07T08:11:16.279Z,46.19
2022-08-07T08:13:54.680Z,46.32
2022-08-07T08:16:35.617Z,45.11
2022-08-07T08:19:09.741Z,44.96
2022-08-07T08:22:08.076Z,44.72
2022-08-07T08:25:18.616Z,44.42
2022-08-07T08:27:57.492Z,44.28
2022-08-07T08:30:42.694Z,45.00
2022-08-07T08:33:21.915Z,44.84
2022-08-07T08:35:55.929Z,43.66
2022-08-07T08:38:40.424Z,43.44
2022-08-07T08:41:18.776Z,42.47
2022-08-07T08:43:59.300Z,42.83
2022-08-07T08:46:40.605Z,42.72
2022-08-07T08:49:32.748Z,41.76
2022-08-07T08:52:14.437Z,41.24
2022-08-07T08:55:07.741Z,41.48
2022-08-07T08:57:41.401Z,41.28
2022-08-07T09:00:12.345Z,40.08
2022-08-07T09:02:53.067Z,39.74
2022-08-07T09:05:37.818Z,40.04
2022-08-07T09:08:28.613Z,39.39
2022-08-07T09:11:14.028Z,38.80
2022-08-07T09:14:09.657Z,37.83
2022-08-07T09:16:49.894Z,37.18
2022-08-07T09:19:53.541Z,37.23
2022-08-07T09:24:28.914Z,37.11
2022-08-07T09:25:27.943Z,37.18
2022-08-07T09:28:06.158Z,35.73
2022-08-07T09:31:03.003Z,36.68
2022-08-07T09:33:57.958Z,36.19
2022-08-07T09:36:35.464Z,35.87
2022-08-07T09:39:53.902Z,36.19
2022-08-07T09:42:33.280Z,36.83
2022-08-07T09:47:55.030Z,37.23
2022-08-07T09:48:19.084Z,37.30
2022-08-07T09:51:14.562Z,37.41
2022-08-07T09:54:02.344Z,37.43
2022-08-07T09:56:53.525Z,39.15
2022-08-07T10:00:01.007Z,39.50
2022-08-07T10:04:07.151Z,38.94
2022-08-07T10:06:42.166Z,38.35
2022-08-07T10:10:00.621Z,38.31
2022-08-07T10:12:53.179Z,38.41
2022-08-07T10:15:56.123Z,38.78
2022-08-07T10:18:51.209Z,39.04
2022-08-07T10:22:14.161Z,38.80
2022-08-07T10:24:57.605Z,38.88
2022-08-07T10:27:47.084Z,38.74
2022-08-07T10:30:20.074Z,38.80
2022-08-07T10:34:06.061Z,39.59
2022-08-07T10:36:30.277Z,40.17
2022-08-07T10:39:20.009Z,40.15
2022-08-07T10:42:09.335Z,40.21
2022-08-07T10:45:01.433Z,41.40
2022-08-07T10:47:53.887Z,40.60
2022-08-07T10:50:28.886Z,40.73
2022-08-07T10:53:09.036Z,41.29
2022-08-07T10:55:50.410Z,41.62
2022-08-07T10:58:40.314Z,42.31
2022-08-07T11:01:23.945Z,42.14
2022-08-07T11:04:23.334Z,42.28
2022-08-07T11:07:02.031Z,42.53
2022-08-07T11:10:09.293Z,42.42
2022-08-07T11:12:35.534Z,43.02
2022-08-07T11:15:14.547Z,42.84
2022-08-07T11:17:53.802Z,43.45
2022-08-07T11:20:27.592Z,43.81
2022-08-07T11:23:04.350Z,44.10
2022-08-07T11:25:48.034Z,43.79
2022-08-07T11:28:26.593Z,43.24
2022-08-07T11:31:00.955Z,42.60
2022-08-07T11:33:59.524Z,43.28
2022-08-07T11:36:39.367Z,43.57
2022-08-07T11:39:20.635Z,44.75
2022-08-07T11:42:03.186Z,44.58
2022-08-07T11:44:52.760Z,45.12
2022-08-07T11:47:56.450Z,46.62
2022-08-07T11:50:44.657Z,48.15
2022-08-07T11:53:43.371Z,50.46
2022-08-07T11:56:53.044Z,59.33
2022-08-07T12:00:12.226Z,70.12
2022-08-07T12:03:44.698Z,70.80
2022-08-07T12:06:39.545Z,77.22
2022-08-07T12:09:16.454Z,73.11
2022-08-07T12:12:08.764Z,73.11
2022-08-07T12:15:01.132Z,79.71
2022-08-07T12:17:58.556Z,82.09
2022-08-07T12:20:34.786Z,81.49
2022-08-07T12:24:07.707Z,81.18
2022-08-07T12:26:46.097Z,80.36
2022-08-07T12:29:37.887Z,82.79
2022-08-07T12:32:17.105Z,85.13
2022-08-07T12:34:55.846Z,86.79
2022-08-07T12:37:28.495Z,86.49
2022-08-07T12:40:46.618Z,86.16
2022-08-07T12:44:01.486Z,84.12
2022-08-07T12:46:15.913Z,83.73
2022-08-07T12:49:10.262Z,84.10
2022-08-07T12:52:12.023Z,83.20
2022-08-07T12:54:55.003Z,82.12
2022-08-07T12:58:00.283Z,81.34
2022-08-07T13:00:32.759Z,80.65
2022-08-07T13:03:55.059Z,79.68
2022-08-07T13:07:00.520Z,78.67
2022-08-07T13:10:28.620Z,77.97
2022-08-07T13:12:52.278Z,75.88
2022-08-07T13:15:34.067Z,75.78
2022-08-07T13:18:28.269Z,76.07
2022-08-07T13:21:07.765Z,75.71
2022-08-07T13:24:01.441Z,75.46
2022-08-07T13:26:41.790Z,75.49
2022-08-07T13:29:20.901Z,75.88
2022-08-07T13:31:57.274Z,77.54
2022-08-07T13:34:44.786Z,78.58
2022-08-07T13:37:24.554Z,79.92
2022-08-07T13:40:35.061Z,78.37
2022-08-07T13:43:00.832Z,76.41
2022-08-07T13:46:12.829Z,75.17
2022-08-07T13:48:34.239Z,75.20
2022-08-07T13:51:28.547Z,75.16
2022-08-07T13:54:00.853Z,75.43
2022-08-07T13:56:41.133Z,74.99
2022-08-07T13:59:25.606Z,74.92
2022-08-07T14:02:07.731Z,72.99
2022-08-07T14:04:50.107Z,72.37
2022-08-07T14:07:27.987Z,71.25
2022-08-07T14:10:17.450Z,71.75
2022-08-07T14:12:55.818Z,70.87
2022-08-07T14:15:32.132Z,69.61
2022-08-07T14:18:24.080Z,71.23
2022-08-07T14:21:08.236Z,71.20
2022-08-07T14:24:00.538Z,69.44
2022-08-07T14:26:37.342Z,69.30
2022-08-07T14:30:06.413Z,69.73
2022-08-07T14:32:04.915Z,69.54
2022-08-07T14:34:46.064Z,70.64
2022-08-07T14:37:19.065Z,70.01
2022-08-07T14:40:15.753Z,72.57
2022-08-07T14:43:55.594Z,74.00
2022-08-07T14:45:46.617Z,76.15
2022-08-07T14:48:22.317Z,76.35
2022-08-07T14:51:00.595Z,77.96
2022-08-07T14:54:08.558Z,77.44
2022-08-07T14:56:30.157Z,78.86
2022-08-07T14:59:13.829Z,78.18
2022-08-07T15:01:58.448Z,78.06
2022-08-07T15:04:28.888Z,79.30
2022-08-07T15:07:00.812Z,77.42
2022-08-07T15:09:57.264Z,76.84
2022-08-07T15:15:23.770Z,77.02
2022-08-07T15:18:02.597Z,76.39
2022-08-07T15:20:55.497Z,75.38
2022-08-07T15:25:02.042Z,74.89
2022-08-07T15:26:28.627Z,74.29
2022-08-07T15:32:01.595Z,75.90
2022-08-07T15:34:37.868Z,76.50
2022-08-07T15:37:27.421Z,77.21
2022-08-07T15:40:01.102Z,77.21
2022-08-07T15:42:51.840Z,75.89
2022-08-07T15:45:55.858Z,74.87
2022-08-07T15:48:37.469Z,76.50
2022-08-07T15:54:19.407Z,79.53
2022-08-07T15:56:50.388Z,81.16
2022-08-07T15:59:39.467Z,82.64
2022-08-07T16:02:15.675Z,83.08
2022-08-07T16:04:45.832Z,83.60
2022-08-07T16:08:30.619Z,83.22
2022-08-07T16:10:14.876Z,83.08
2022-08-07T16:13:04.661Z,84.17
2022-08-07T16:15:58.976Z,84.74
2022-08-07T16:18:50.779Z,85.61
2022-08-07T16:21:56.990Z,86.94
2022-08-07T16:24:34.938Z,88.89
2022-08-07T16:27:20.890Z,89.66
2022-08-07T16:30:30.171Z,90.68
2022-08-07T16:33:00.442Z,91.07
2022-08-07T16:36:03.001Z,91.68
2022-08-07T16:39:01.016Z,92.12
2022-08-07T16:41:54.308Z,92.69
2022-08-07T16:45:03.846Z,93.26
2022-08-07T16:47:56.856Z,93.13
2022-08-07T16:50:52.557Z,93.26
2022-08-07T16:54:02.908Z,92.75
2022-08-07T16:56:57.218Z,92.90
2022-08-07T16:59:46.414Z,92.39
2022-08-07T17:02:52.267Z,92.49
2022-08-07T17:06:28.739Z,92.44
2022-08-07T17:09:08.835Z,92.39
2022-08-07T17:12:03.921Z,92.37
2022-08-07T17:14:45.335Z,92.30
2022-08-07T17:17:46.612Z,92.01
2022-08-07T17:20:30.003Z,92.18
2022-08-07T17:23:08.633Z,92.44
2022-08-07T17:25:54.732Z,92.48
2022-08-07T17:28:38.139Z,92.51
2022-08-07T17:31:17.085Z,93.03
2022-08-07T17:34:18.159Z,93.44
2022-08-07T17:36:57.429Z,93.88
2022-08-07T17:39:58.892Z,94.39
2022-08-07T17:42:59.483Z,94.76
2022-08-07T17:45:35.334Z,94.70
2022-08-07T17:48:10.404Z,94.76
2022-08-07T17:50:54.478Z,94.69
2022-08-07T17:54:01.474Z,93.73
2022-08-07T17:56:28.848Z,94.28
2022-08-07T17:59:10.713Z,95.73
2022-08-07T18:01:51.753Z,95.40
2022-08-07T18:04:36.016Z,95.02
2022-08-07T18:07:20.898Z,94.38
2022-08-07T18:10:07.369Z,94.14
2022-08-07T18:13:06.875Z,93.99
2022-08-07T18:15:57.125Z,94.46
2022-08-07T18:18:44.995Z,95.03
2022-08-07T18:21:51.637Z,95.93
2022-08-07T18:24:28.509Z,96.24
2022-08-07T18:27:38.414Z,95.08
2022-08-07T18:30:30.807Z,94.77
2022-08-07T18:33:37.851Z,94.69
2022-08-07T18:36:18.428Z,94.49
2022-08-07T18:40:09.058Z,94.08
2022-08-07T18:42:18.926Z,94.09
2022-08-07T18:48:01.560Z,94.53
2022-08-07T18:50:55.788Z,93.96
2022-08-07T18:53:39.923Z,94.03
2022-08-07T18:56:21.161Z,94.48
2022-08-07T18:59:47.342Z,94.90
2022-08-07T19:02:34.051Z,94.77
2022-08-07T19:05:24.734Z,94.72
2022-08-07T19:08:03.933Z,94.60
2022-08-07T19:10:51.955Z,94.53
2022-08-07T19:13:27.700Z,94.37
2022-08-07T19:16:43.129Z,94.78
2022-08-07T19:19:06.105Z,95.31
2022-08-07T19:21:56.088Z,95.38
2022-08-07T19:24:43.325Z,96.02
2022-08-07T19:28:31.057Z,96.31
2022-08-07T19:30:55.555Z,96.18
2022-08-07T19:33:12.775Z,94.05
2022-08-07T19:35:45.253Z,94.13
2022-08-07T19:38:18.846Z,94.98
2022-08-07T19:40:52.480Z,96.73
2022-08-07T19:43:49.000Z,94.90
2022-08-07T19:46:35.608Z,93.89
2022-08-07T19:49:08.419Z,94.04
2022-08-07T19:51:52.161Z,95.80
2022-08-07T19:54:35.150Z,94.94
2022-08-07T19:58:02.300Z,93.37
2022-08-07T20:00:08.887Z,93.35
2022-08-07T20:02:52.323Z,94.64
2022-08-07T20:05:27.813Z,95.81
2022-08-07T20:08:01.576Z,95.41
2022-08-07T20:10:51.945Z,94.26
2022-08-07T20:13:41.791Z,94.70
2022-08-07T20:16:15.836Z,95.48
2022-08-07T20:19:12.089Z,95.43
2022-08-07T20:21:47.672Z,95.15
2022-08-07T20:24:23.247Z,95.76
2022-08-07T20:26:56.471Z,96.10
2022-08-07T20:29:48.093Z,95.36
2022-08-07T20:32:25.557Z,95.20
2022-08-07T20:35:01.442Z,95.10
2022-08-07T20:37:57.666Z,96.24
2022-08-07T20:40:34.288Z,97.03
2022-08-07T20:43:09.692Z,97.37
2022-08-07T20:46:26.873Z,97.87
2022-08-07T20:48:38.615Z,97.79
2022-08-07T20:51:29.990Z,97.34
2022-08-07T20:54:07.163Z,96.82
2022-08-07T20:56:46.030Z,97.43
2022-08-07T20:59:27.225Z,97.64
2022-08-07T21:02:34.218Z,97.01
2022-08-07T21:05:10.190Z,96.73
2022-08-07T21:07:49.735Z,96.44
2022-08-07T21:10:29.449Z,96.36
2022-08-07T21:13:04.499Z,96.84
2022-08-07T21:15:47.856Z,96.84
2022-08-07T21:18:33.443Z,97.12
2022-08-07T21:21:04.864Z,97.68
2022-08-07T21:23:50.466Z,98.09
2022-08-07T21:26:30.743Z,98.64
2022-08-07T21:29:06.797Z,99.21
2022-08-07T21:32:43.747Z,99.97
2022-08-07T21:34:46.344Z,100.00
2022-08-07T21:37:22.946Z,100.00
2022-08-07T21:39:59.426Z,100.00
2022-08-07T21:42:45.966Z,100.00
2022-08-07T21:46:08.452Z,100.00
2022-08-07T21:48:32.464Z,100.00
2022-08-07T21:51:20.401Z,100.00
2022-08-07T21:53:56.436Z,100.00
2022-08-07T21:56:47.169Z,100.00
2022-08-07T22:00:03.035Z,100.00
2022-08-07T22:02:32.199Z,100.00
2022-08-07T22:05:04.441Z,100.00
2022-08-07T22:07:48.643Z,100.00
2022-08-07T22:10:32.781Z,100.00
2022-08-07T22:13:13.758Z,100.00
2022-08-07T22:16:39.780Z,100.00
2022-08-07T22:18:43.305Z,100.00
2022-08-07T22:21:20.484Z,100.00
2022-08-07T22:23:56.150Z,100.00
2022-08-07T22:26:30.682Z,100.00
2022-08-07T22:29:14.011Z,100.00
2022-08-07T22:32:00.305Z,100.00
2022-08-07T22:34:52.949Z,100.00
2022-08-07T22:38:03.486Z,100.00
2022-08-07T22:40:27.929Z,100.00
2022-08-07T22:43:09.419Z,100.00
2022-08-07T22:46:21.847Z,100.00
2022-08-07T22:49:07.705Z,100.00
2022-08-07T22:52:07.004Z,100.00
2022-08-07T22:55:17.203Z,100.00
2022-08-07T22:58:27.685Z,100.00
2022-08-07T23:01:16.500Z,100.00
2022-08-07T23:03:58.278Z,100.00
2022-08-07T23:06:50.005Z,100.00
2022-08-07T23:10:03.848Z,100.00
2022-08-07T23:12:37.987Z,100.00
2022-08-07T23:16:06.063Z,100.00
2022-08-07T23:18:25.997Z,100.00
2022-08-07T23:21:20.953Z,100.00
2022-08-07T23:24:20.201Z,100.00
2022-08-07T23:27:14.624Z,100.00
2022-08-07T23:30:39.125Z,100.00
2022-08-07T23:34:36.191Z,100.00
2022-08-07T23:36:17.312Z,100.00
2022-08-07T23:39:08.565Z,100.00
2022-08-07T23:42:01.677Z,100.00
2022-08-07T23:45:15.086Z,100.00
2022-08-07T23:48:17.043Z,100.00
2022-08-07T23:50:54.508Z,100.00
2022-08-07T23:53:51.202Z,100.00
2022-08-07T23:56:28.064Z,100.00
